Time;durP1;ratioP1;P1;durP2;ratioP2;P2;SDS_P1;SDS_P2;PMS_P1;PMS_P2;Temp;Humidity;BMP_temperature;BMP_pressure;BME280_temperature;BME280_humidity;BME280_pressure;Samples;Min_cycle;Max_cycle;Signal;HPM_P1;HPM_P2
2024/01/01 00:01:27;;;;;;;20.63;10.30;;;7.70;99.90;;;;;;5030015;28;20055;-70
2024/01/01 00:03:53;;;;;;;15.10;7.63;;;7.70;99.90;;;;;;5031497;28;20294;-71
2024/01/01 00:06:18;;;;;;;16.97;7.77;;;7.70;99.90;;;;;;5028617;28;20116;-71
2024/01/01 00:08:44;;;;;;;17.23;8.03;;;7.70;99.90;;;;;;5032364;28;20453;-70
2024/01/01 00:11:09;;;;;;;22.50;9.10;;;7.70;99.90;;;;;;5030706;28;20490;-70
2024/01/01 00:13:35;;;;;;;12.63;6.47;;;7.70;99.90;;;;;;5036816;28;20060;-70
2024/01/01 00:16:01;;;;;;;20.47;7.60;;;7.70;99.90;;;;;;5035106;28;20105;-70
2024/01/01 00:18:26;;;;;;;12.60;6.73;;;7.70;99.90;;;;;;5040139;28;20414;-70
2024/01/01 00:20:52;;;;;;;17.20;6.83;;;7.60;99.90;;;;;;5030963;28;20037;-70
2024/01/01 00:23:17;;;;;;;15.03;6.80;;;7.60;99.90;;;;;;5026325;28;20585;-70
2024/01/01 00:25:43;;;;;;;17.23;7.30;;;7.60;99.90;;;;;;5037936;28;20037;-70
2024/01/01 00:28:08;;;;;;;16.50;6.60;;;7.50;99.90;;;;;;5029802;28;20440;-70
2024/01/01 00:30:35;;;;;;;15.23;6.00;;;7.50;99.90;;;;;;5034856;28;20124;-70
2024/01/01 00:33:01;;;;;;;14.23;6.03;;;7.40;99.90;;;;;;5029582;28;20451;-70
2024/01/01 00:35:27;;;;;;;13.27;6.23;;;7.40;99.90;;;;;;5039804;28;20069;-70
2024/01/01 00:37:52;;;;;;;11.80;4.80;;;7.40;99.90;;;;;;5037431;28;20086;-70
2024/01/01 00:40:18;;;;;;;9.83;4.57;;;7.40;99.90;;;;;;5028070;28;20059;-69
2024/01/01 00:42:47;;;;;;;17.43;6.90;;;7.40;99.90;;;;;;5037969;28;20204;-69
2024/01/01 00:45:13;;;;;;;21.98;11.25;;;7.40;99.90;;;;;;5025184;28;20076;-69
2024/01/01 00:47:38;;;;;;;21.50;10.98;;;7.40;99.90;;;;;;5031351;28;20041;-69
2024/01/01 00:50:05;;;;;;;31.23;13.47;;;7.40;99.90;;;;;;5030036;28;20489;-69
2024/01/01 00:52:30;;;;;;;34.30;17.25;;;7.40;99.90;;;;;;5031967;28;20060;-69
2024/01/01 00:54:56;;;;;;;28.73;13.60;;;7.40;99.90;;;;;;5025137;28;20041;-69
2024/01/01 00:57:22;;;;;;;20.33;11.47;;;7.40;99.90;;;;;;5037169;28;20045;-69
2024/01/01 00:59:47;;;;;;;25.87;12.10;;;7.40;99.90;;;;;;5025055;28;20051;-71
2024/01/01 01:02:13;;;;;;;26.67;12.73;;;7.40;99.90;;;;;;5009495;28;20048;-71
2024/01/01 01:04:42;;;;;;;32.93;13.67;;;7.40;99.90;;;;;;5036833;28;20118;-71
2024/01/01 01:07:07;;;;;;;32.85;13.98;;;7.40;99.90;;;;;;5040142;28;20472;-71
2024/01/01 01:09:33;;;;;;;29.70;13.43;;;7.40;99.90;;;;;;5036815;28;20033;-71
2024/01/01 01:11:59;;;;;;;37.70;14.77;;;7.30;99.90;;;;;;5032522;28;20124;-71
2024/01/01 01:14:24;;;;;;;33.57;15.43;;;7.30;99.90;;;;;;5044894;28;20086;-71
2024/01/01 01:16:50;;;;;;;32.37;14.83;;;7.30;99.90;;;;;;5044676;28;20448;-71
2024/01/01 01:19:16;;;;;;;35.83;15.93;;;7.40;99.90;;;;;;5039457;28;20075;-71
2024/01/01 01:21:41;;;;;;;35.07;16.03;;;7.40;99.90;;;;;;5029317;28;20041;-71
2024/01/01 01:24:07;;;;;;;35.13;16.30;;;7.40;99.90;;;;;;5035496;28;20413;-71
2024/01/01 01:26:33;;;;;;;39.77;15.77;;;7.30;99.90;;;;;;5028078;28;20128;-71
2024/01/01 01:28:58;;;;;;;41.33;14.30;;;7.40;99.90;;;;;;5034292;28;20418;-71
2024/01/01 01:31:24;;;;;;;34.67;17.07;;;7.40;99.90;;;;;;5032807;28;20128;-71
2024/01/01 01:33:51;;;;;;;42.70;16.37;;;7.40;99.90;;;;;;5039946;28;20163;-71
2024/01/01 01:36:17;;;;;;;34.65;16.92;;;7.40;99.90;;;;;;5030562;28;20037;-69
2024/01/01 01:38:42;;;;;;;40.77;19.40;;;7.40;99.90;;;;;;5030752;28;20049;-69
2024/01/01 01:41:08;;;;;;;36.50;17.90;;;7.40;99.90;;;;;;5027146;28;20033;-69
2024/01/01 01:43:34;;;;;;;35.13;18.73;;;7.40;99.90;;;;;;5036236;28;20041;-69
2024/01/01 01:45:59;;;;;;;37.60;20.08;;;7.40;99.90;;;;;;5031103;28;20049;-69
2024/01/01 01:48:26;;;;;;;41.90;21.03;;;7.40;99.90;;;;;;5035688;28;20514;-69
2024/01/01 01:50:52;;;;;;;47.33;19.33;;;7.40;99.90;;;;;;5037482;28;20274;-69
2024/01/01 01:53:23;;;;;;;41.55;18.65;;;7.40;99.90;;;;;;5035661;28;20106;-69
2024/01/01 01:55:51;;;;;;;37.08;18.40;;;7.40;99.90;;;;;;5035165;28;20094;-69
2024/01/01 01:58:17;;;;;;;34.17;16.90;;;7.40;99.90;;;;;;5022464;28;20053;-69
2024/01/01 02:00:45;;;;;;;31.48;16.60;;;7.40;99.90;;;;;;5036596;28;20075;-69
2024/01/01 02:03:11;;;;;;;32.25;16.20;;;7.50;99.90;;;;;;5036299;28;20093;-69
2024/01/01 02:05:37;;;;;;;30.70;14.85;;;7.50;99.90;;;;;;5042088;28;20040;-69
2024/01/01 02:08:03;;;;;;;;;;;7.50;99.90;;;;;;5042019;28;20045;-69
2024/01/01 02:10:29;;;;;;;29.63;13.93;;;7.50;99.90;;;;;;5029043;28;19936;-69
2024/01/01 02:12:54;;;;;;;26.73;13.90;;;7.40;99.90;;;;;;5038660;28;20049;-69
2024/01/01 02:15:20;;;;;;;25.40;13.17;;;7.40;99.90;;;;;;5035924;28;20036;-69
2024/01/01 02:17:46;;;;;;;25.27;13.53;;;7.40;99.90;;;;;;5031203;28;20094;-69
2024/01/01 02:20:12;;;;;;;28.90;13.52;;;7.40;99.90;;;;;;5034049;28;20125;-69
2024/01/01 02:22:39;;;;;;;30.77;13.63;;;7.30;99.90;;;;;;5028041;28;20099;-69
2024/01/01 02:25:05;;;;;;;28.85;12.45;;;7.30;99.90;;;;;;5034940;28;20045;-69
2024/01/01 02:27:31;;;;;;;23.52;11.95;;;7.30;99.90;;;;;;5042321;28;20355;-69
2024/01/01 02:29:57;;;;;;;23.02;11.35;;;7.30;99.90;;;;;;5042448;28;20036;-69
2024/01/01 02:32:22;;;;;;;26.30;12.77;;;7.20;99.90;;;;;;5031989;28;20041;-69
2024/01/01 02:34:48;;;;;;;21.57;11.37;;;7.20;99.90;;;;;;5032309;28;20505;-69
2024/01/01 02:37:14;;;;;;;28.83;11.57;;;7.20;99.90;;;;;;5037038;28;20041;-69
2024/01/01 02:39:39;;;;;;;22.63;10.83;;;7.20;99.90;;;;;;5040212;28;20041;-69
2024/01/01 02:42:05;;;;;;;29.37;10.63;;;7.20;99.90;;;;;;5029919;28;20264;-69
2024/01/01 02:44:31;;;;;;;25.97;11.90;;;7.20;99.90;;;;;;5039685;28;20634;-69
2024/01/01 02:46:56;;;;;;;24.00;12.10;;;7.20;99.90;;;;;;5035276;28;20392;-69
2024/01/01 02:49:22;;;;;;;23.17;10.67;;;7.20;99.90;;;;;;5031934;28;20120;-69
2024/01/01 02:51:47;;;;;;;23.60;10.80;;;7.10;99.90;;;;;;5031111;28;20095;-69
2024/01/01 02:54:14;;;;;;;21.27;10.30;;;7.10;99.90;;;;;;5030308;28;20397;-69
2024/01/01 02:56:40;;;;;;;;;;;7.10;99.90;;;;;;5040546;28;20393;-69
2024/01/01 02:59:05;;;;;;;20.77;9.00;;;7.10;99.90;;;;;;5037598;28;19929;-69
2024/01/01 03:01:31;;;;;;;17.10;7.70;;;7.10;99.90;;;;;;5029557;28;20134;-70
2024/01/01 03:03:56;;;;;;;15.90;7.43;;;7.10;99.90;;;;;;5028759;28;20037;-70
2024/01/01 03:06:22;;;;;;;22.57;8.60;;;7.10;99.90;;;;;;5031828;28;20072;-70
2024/01/01 03:08:47;;;;;;;17.67;7.17;;;7.20;99.90;;;;;;5031654;28;20184;-70
2024/01/01 03:11:14;;;;;;;16.80;8.27;;;7.10;99.90;;;;;;5037771;28;20041;-70
2024/01/01 03:13:40;;;;;;;15.70;7.35;;;7.10;99.90;;;;;;5032339;28;20067;-70
2024/01/01 03:16:06;;;;;;;19.00;7.07;;;7.10;99.90;;;;;;5041988;28;20083;-70
2024/01/01 03:18:32;;;;;;;14.55;6.38;;;7.10;99.90;;;;;;5015570;28;20041;-70
2024/01/01 03:20:57;;;;;;;13.37;6.30;;;7.10;99.90;;;;;;5034372;28;20070;-70
2024/01/01 03:23:23;;;;;;;16.30;6.53;;;7.10;99.90;;;;;;5038219;28;20045;-70
2024/01/01 03:25:49;;;;;;;11.57;6.07;;;7.10;99.90;;;;;;5042239;28;20052;-70
2024/01/01 03:28:14;;;;;;;10.60;5.67;;;7.10;99.90;;;;;;5035718;28;20037;-69
2024/01/01 03:30:40;;;;;;;13.90;5.50;;;7.00;99.90;;;;;;5041777;28;20067;-70
2024/01/01 03:33:06;;;;;;;10.60;4.47;;;7.10;99.90;;;;;;5034004;28;20033;-70
2024/01/01 03:35:31;;;;;;;12.00;4.73;;;7.10;99.90;;;;;;5035114;28;20040;-69
2024/01/01 03:37:58;;;;;;;22.13;4.90;;;7.10;99.90;;;;;;5031226;28;20107;-69
2024/01/01 03:40:23;;;;;;;;;;;7.10;99.90;;;;;;5032250;28;20405;-69
2024/01/01 03:42:49;;;;;;;11.35;4.35;;;7.10;99.90;;;;;;5030951;28;19917;-69
2024/01/01 03:45:15;;;;;;;10.67;3.67;;;7.10;99.90;;;;;;5040401;28;20052;-69
2024/01/01 03:47:41;;;;;;;13.77;4.82;;;7.10;99.90;;;;;;5015672;28;20044;-70
2024/01/01 03:50:07;;;;;;;12.70;4.53;;;7.10;99.90;;;;;;5032778;28;20045;-69
2024/01/01 03:52:33;;;;;;;9.65;3.53;;;7.10;99.90;;;;;;5036634;28;20045;-69
2024/01/01 03:54:58;;;;;;;12.40;4.50;;;7.10;99.90;;;;;;5031349;28;20049;-69
2024/01/01 03:57:24;;;;;;;10.73;4.27;;;7.10;99.90;;;;;;5035145;28;20456;-69
2024/01/01 03:59:50;;;;;;;11.65;4.78;;;7.10;99.90;;;;;;5031973;28;20128;-69
2024/01/01 04:02:15;;;;;;;9.53;3.50;;;7.00;99.90;;;;;;5034572;28;20045;-69
2024/01/01 04:04:44;;;;;;;7.83;3.00;;;7.10;99.90;;;;;;5031715;28;20260;-69
2024/01/01 04:07:10;;;;;;;10.90;3.70;;;7.00;99.90;;;;;;5041107;28;20532;-69
2024/01/01 04:09:36;;;;;;;9.07;3.20;;;7.10;99.90;;;;;;5034077;28;20036;-69
2024/01/01 04:12:02;;;;;;;9.73;3.30;;;7.00;99.90;;;;;;5032144;28;20049;-69
2024/01/01 04:14:28;;;;;;;6.25;3.40;;;7.00;99.90;;;;;;5006707;28;20048;-69
2024/01/01 04:16:53;;;;;;;10.43;3.53;;;7.00;99.90;;;;;;5027768;28;20049;-68
2024/01/01 04:19:21;;;;;;;8.97;2.83;;;7.00;99.90;;;;;;5038291;28;20037;-69
2024/01/01 04:21:47;;;;;;;8.15;2.67;;;7.00;99.90;;;;;;5033241;28;20037;-68
2024/01/01 04:24:13;;;;;;;7.70;3.45;;;7.00;99.90;;;;;;5030065;28;20509;-69
2024/01/01 04:26:39;;;;;;;7.13;2.47;;;7.00;99.90;;;;;;5030035;28;20060;-69
2024/01/01 04:29:04;;;;;;;9.93;2.40;;;6.90;99.90;;;;;;5043722;28;20450;-69
2024/01/01 04:31:30;;;;;;;4.20;1.90;;;6.90;99.90;;;;;;5034890;28;20132;-69
2024/01/01 04:33:56;;;;;;;7.20;2.23;;;6.90;99.90;;;;;;5027848;28;20048;-69
2024/01/01 04:36:22;;;;;;;7.35;2.70;;;6.80;99.90;;;;;;5040884;28;20098;-69
2024/01/01 04:38:48;;;;;;;12.77;2.30;;;6.90;99.90;;;;;;5027543;28;20452;-69
2024/01/01 04:41:14;;;;;;;6.85;1.90;;;6.90;99.90;;;;;;5041429;28;20045;-70
2024/01/01 04:43:40;;;;;;;8.80;2.15;;;6.90;99.90;;;;;;5031929;28;20393;-70
2024/01/01 04:46:06;;;;;;;10.60;2.75;;;6.90;99.90;;;;;;5019854;28;20128;-70
2024/01/01 04:48:33;;;;;;;7.18;1.67;;;6.90;99.90;;;;;;5037226;28;20036;-70
2024/01/01 04:50:59;;;;;;;4.50;1.90;;;6.90;99.90;;;;;;5032585;28;20171;-70
2024/01/01 04:53:25;;;;;;;9.10;2.03;;;6.90;99.90;;;;;;5032561;28;20459;-70
2024/01/01 04:55:50;;;;;;;7.47;1.73;;;6.90;99.90;;;;;;5038890;28;20075;-69
2024/01/01 04:58:16;;;;;;;7.27;2.47;;;7.00;99.90;;;;;;5041833;28;20140;-69
2024/01/01 05:00:42;;;;;;;6.57;1.63;;;6.90;99.90;;;;;;5032406;28;20148;-69
2024/01/01 05:03:07;;;;;;;4.50;1.60;;;6.90;99.90;;;;;;5034189;28;20045;-69
2024/01/01 05:05:33;;;;;;;10.00;2.03;;;7.00;99.90;;;;;;5036792;28;20037;-69
2024/01/01 05:07:59;;;;;;;7.10;1.67;;;7.00;99.90;;;;;;5041774;28;20447;-69
2024/01/01 05:10:24;;;;;;;7.07;1.73;;;7.00;99.90;;;;;;5043622;28;20085;-69
2024/01/01 05:12:50;;;;;;;8.47;2.63;;;6.90;99.90;;;;;;5038286;28;20037;-69
2024/01/01 05:15:15;;;;;;;5.70;1.80;;;7.00;99.90;;;;;;5034040;28;20037;-69
2024/01/01 05:17:41;;;;;;;8.70;2.60;;;7.00;99.90;;;;;;5039119;28;20071;-69
2024/01/01 05:20:07;;;;;;;4.17;1.60;;;7.00;99.90;;;;;;5026859;28;20636;-69
2024/01/01 05:22:33;;;;;;;7.78;1.80;;;7.00;99.90;;;;;;5037835;28;20041;-69
2024/01/01 05:24:59;;;;;;;6.60;1.90;;;7.00;99.90;;;;;;5032336;28;20624;-70
2024/01/01 05:27:25;;;;;;;8.97;2.10;;;7.00;99.90;;;;;;5042585;28;20077;-70
2024/01/01 05:29:51;;;;;;;;;;;7.00;99.90;;;;;;5036940;28;20041;-69
2024/01/01 05:32:16;;;;;;;5.88;1.33;;;7.10;99.90;;;;;;5038917;28;19916;-69
2024/01/01 05:34:42;;;;;;;4.90;1.67;;;7.00;99.90;;;;;;5035817;28;20045;-69
2024/01/01 05:37:08;;;;;;;7.30;1.53;;;7.10;99.90;;;;;;5035369;28;20049;-70
2024/01/01 05:39:34;;;;;;;6.10;1.88;;;7.10;99.90;;;;;;5034685;28;20397;-70
2024/01/01 05:42:00;;;;;;;5.75;1.48;;;7.10;99.90;;;;;;5034695;28;20050;-69
2024/01/01 05:44:25;;;;;;;6.47;1.40;;;7.10;99.90;;;;;;5035376;28;20115;-70
2024/01/01 05:46:51;;;;;;;5.32;1.40;;;7.10;99.90;;;;;;5035373;28;20497;-69
2024/01/01 05:49:18;;;;;;;6.60;1.63;;;7.10;99.90;;;;;;5039858;28;20041;-70
2024/01/01 05:51:44;;;;;;;;;;;7.10;99.90;;;;;;5037124;28;20116;-70
2024/01/01 05:54:09;;;;;;;6.78;2.05;;;7.10;99.90;;;;;;5020266;28;20007;-70
2024/01/01 05:56:35;;;;;;;5.80;1.30;;;7.20;99.90;;;;;;5036676;28;20052;-70
2024/01/01 05:59:00;;;;;;;5.07;1.23;;;7.10;99.90;;;;;;5041170;28;20042;-69
2024/01/01 06:01:26;;;;;;;5.07;1.27;;;7.20;99.90;;;;;;5039922;28;20086;-70
2024/01/01 06:03:52;;;;;;;3.80;1.60;;;7.20;99.90;;;;;;5035875;28;20044;-69
2024/01/01 06:06:17;;;;;;;4.67;1.17;;;7.20;99.90;;;;;;5034033;28;20033;-70
2024/01/01 06:08:43;;;;;;;7.17;1.23;;;7.30;99.90;;;;;;5028282;28;20091;-70
2024/01/01 06:11:09;;;;;;;8.10;1.25;;;7.20;99.90;;;;;;5037608;28;20555;-70
2024/01/01 06:13:35;;;;;;;4.82;1.45;;;7.20;99.90;;;;;;5037424;28;20073;-70
2024/01/01 06:16:02;;;;;;;17.23;1.60;;;7.20;99.90;;;;;;5038938;28;20045;-70
2024/01/01 06:18:28;;;;;;;8.75;2.08;;;7.20;99.90;;;;;;5035358;28;20044;-69
2024/01/01 06:20:54;;;;;;;10.23;1.53;;;7.20;99.90;;;;;;5035366;28;20033;-69
2024/01/01 06:23:20;;;;;;;10.40;1.98;;;7.30;99.90;;;;;;5044720;28;20036;-70
2024/01/01 06:25:45;;;;;;;8.20;1.37;;;7.30;99.90;;;;;;5036027;28;20094;-69
2024/01/01 06:28:11;;;;;;;9.20;1.57;;;7.30;99.90;;;;;;5035908;28;20128;-70
2024/01/01 06:30:37;;;;;;;10.83;1.80;;;7.30;99.90;;;;;;5033243;28;20036;-70
2024/01/01 06:33:04;;;;;;;9.73;1.75;;;7.30;99.90;;;;;;5029348;28;20052;-70
2024/01/01 06:35:30;;;;;;;9.32;1.92;;;7.30;99.90;;;;;;5038876;28;20049;-69
2024/01/01 06:37:59;;;;;;;11.50;2.10;;;7.30;99.90;;;;;;5039503;28;20041;-69
2024/01/01 06:40:25;;;;;;;10.25;1.58;;;7.40;99.90;;;;;;5037522;28;20136;-69
2024/01/01 06:42:51;;;;;;;5.13;1.70;;;7.40;99.90;;;;;;5028041;28;20049;-70
2024/01/01 06:45:17;;;;;;;9.17;1.97;;;7.30;99.90;;;;;;5042278;28;20394;-70
2024/01/01 06:47:43;;;;;;;7.60;2.00;;;7.40;99.90;;;;;;5035462;28;20048;-70
2024/01/01 06:50:09;;;;;;;7.83;2.17;;;7.40;99.90;;;;;;5033321;28;20056;-69
2024/01/01 06:52:34;;;;;;;12.27;1.80;;;7.40;99.90;;;;;;5032502;28;20037;-69
2024/01/01 06:55:00;;;;;;;12.13;2.00;;;7.40;99.90;;;;;;5036111;28;20535;-70
2024/01/01 06:57:25;;;;;;;10.47;2.10;;;7.40;99.90;;;;;;5041544;28;20041;-70
2024/01/01 06:59:51;;;;;;;15.07;2.00;;;7.40;99.90;;;;;;5032290;28;20494;-69
2024/01/01 07:02:18;;;;;;;10.38;1.88;;;7.40;99.90;;;;;;5009918;28;20041;-69
2024/01/01 07:04:43;;;;;;;;;;;7.50;99.90;;;;;;5037115;28;20421;-69
2024/01/01 07:07:10;;;;;;;3.35;0.98;;;7.50;99.90;;;;;;5036564;28;19917;-69
2024/01/01 07:09:35;;;;;;;1.95;0.68;;;7.30;99.90;;;;;;5033739;28;20037;-69
2024/01/01 07:12:27;;;;;;;2.40;0.67;;;7.10;99.90;;;;;;5038851;28;20494;-69
2024/01/01 07:14:53;;;;;;;1.85;0.73;;;6.90;99.90;;;;;;5035850;28;20045;-69
2024/01/01 07:17:19;;;;;;;;;;;6.80;99.90;;;;;;5032508;28;20049;-69
2024/01/01 07:19:45;;;;;;;3.20;0.25;;;6.70;99.90;;;;;;5037147;28;20008;-69
2024/01/01 07:22:11;;;;;;;2.87;0.30;;;6.60;99.90;;;;;;5032233;28;20051;-69
2024/01/01 07:24:37;;;;;;;0.98;0.40;;;6.60;99.90;;;;;;5035975;28;20163;-69
2024/01/01 07:27:04;;;;;;;0.82;0.30;;;6.60;99.90;;;;;;5030452;28;20045;-70
2024/01/01 07:29:30;;;;;;;;;;;6.60;99.90;;;;;;5038640;28;20040;-69
2024/01/01 07:31:56;;;;;;;3.65;0.60;;;6.60;99.90;;;;;;5027008;28;21125;-69
2024/01/01 07:34:22;;;;;;;1.50;0.50;;;6.60;99.90;;;;;;5036687;28;20044;-69
2024/01/01 07:36:48;;;;;;;1.38;0.40;;;6.60;99.90;;;;;;5034383;28;20041;-69
2024/01/01 07:39:19;;;;;;;6.43;0.50;;;6.60;99.90;;;;;;5040431;28;20124;-69
2024/01/01 07:41:48;;;;;;;2.08;0.60;;;6.60;99.90;;;;;;5032895;28;20053;-69
2024/01/01 07:44:14;;;;;;;1.17;0.50;;;6.60;99.90;;;;;;5026570;28;20037;-69
2024/01/01 07:46:42;;;;;;;6.03;0.60;;;6.70;99.90;;;;;;5033762;28;20049;-70
2024/01/01 07:49:07;;;;;;;2.42;0.55;;;6.70;99.90;;;;;;5037946;28;20076;-70
2024/01/01 07:51:34;;;;;;;3.97;1.23;;;6.70;99.90;;;;;;5032690;28;20033;-70
2024/01/01 07:54:00;;;;;;;3.45;0.70;;;6.70;99.90;;;;;;5036297;28;20049;-70
2024/01/01 07:56:26;;;;;;;6.73;0.70;;;6.70;99.90;;;;;;5030812;28;20041;-70
2024/01/01 07:58:53;;;;;;;2.67;0.77;;;6.70;99.90;;;;;;5032224;28;20357;-70
2024/01/01 08:01:19;;;;;;;6.63;0.73;;;6.70;99.90;;;;;;5031429;28;20105;-70
2024/01/01 08:03:44;;;;;;;9.13;2.92;;;6.70;99.90;;;;;;5035119;28;20040;-69
2024/01/01 08:06:10;;;;;;;3.10;1.07;;;6.70;99.90;;;;;;5031913;28;20537;-69
2024/01/01 08:08:36;;;;;;;5.43;2.10;;;6.70;99.90;;;;;;5024359;28;20036;-69
2024/01/01 08:11:01;;;;;;;11.17;3.80;;;6.80;99.90;;;;;;5035224;28;20041;-70
2024/01/01 08:13:27;;;;;;;22.30;5.20;;;6.70;99.90;;;;;;5036596;28;20118;-69
2024/01/01 08:15:53;;;;;;;5.55;1.70;;;6.70;99.90;;;;;;5030935;28;20572;-69
2024/01/01 08:18:18;;;;;;;7.60;1.67;;;6.80;99.90;;;;;;5035013;28;20049;-69
2024/01/01 08:20:44;;;;;;;6.33;1.70;;;6.80;99.90;;;;;;5034440;28;20134;-69
2024/01/01 08:23:10;;;;;;;9.20;2.57;;;6.80;99.90;;;;;;5044794;28;20106;-69
2024/01/01 08:25:36;;;;;;;8.23;1.60;;;6.80;99.90;;;;;;5035007;28;20076;-69
2024/01/01 08:28:02;;;;;;;5.50;1.50;;;6.80;99.90;;;;;;5035461;28;20053;-69
2024/01/01 08:30:28;;;;;;;4.40;1.17;;;6.90;99.90;;;;;;5034310;28;20363;-69
2024/01/01 08:32:53;;;;;;;5.07;1.20;;;6.90;99.90;;;;;;5040640;28;20452;-69
2024/01/01 08:35:19;;;;;;;9.33;1.67;;;6.90;99.90;;;;;;5036731;28;20041;-69
2024/01/01 08:37:45;;;;;;;4.90;0.93;;;6.90;99.90;;;;;;5043566;28;20045;-69
2024/01/01 08:40:11;;;;;;;2.13;0.77;;;6.90;99.90;;;;;;5036932;28;20734;-69
2024/01/01 08:42:37;;;;;;;5.00;0.70;;;7.00;99.90;;;;;;5040183;28;20086;-69
2024/01/01 08:45:06;;;;;;;2.83;0.55;;;6.90;99.90;;;;;;5039683;28;20129;-69
2024/01/01 08:47:31;;;;;;;1.52;0.55;;;6.90;99.90;;;;;;5038903;28;20067;-71
2024/01/01 08:49:57;;;;;;;3.60;0.70;;;6.80;99.90;;;;;;5036979;28;20065;-70
2024/01/01 08:52:22;;;;;;;2.50;0.50;;;6.70;99.90;;;;;;5044121;28;20048;-70
2024/01/01 08:54:48;;;;;;;4.97;0.53;;;6.70;99.90;;;;;;5042854;28;20520;-70
2024/01/01 08:57:14;;;;;;;3.27;0.30;;;6.70;99.90;;;;;;5044713;28;20037;-70
2024/01/01 08:59:40;;;;;;;1.35;0.47;;;6.70;99.90;;;;;;5035403;28;20056;-70
2024/01/01 09:02:07;;;;;;;1.33;0.40;;;6.70;99.90;;;;;;5041133;28;20080;-70
2024/01/01 09:04:33;;;;;;;;;;;6.70;99.90;;;;;;5039345;28;20049;-70
2024/01/01 09:07:00;;;;;;;3.80;0.50;;;6.70;99.90;;;;;;5024090;28;19943;-70
2024/01/01 09:09:29;;;;;;;4.45;0.60;;;6.80;99.90;;;;;;5039659;28;20087;-70
2024/01/01 09:11:55;;;;;;;2.42;0.73;;;6.80;99.90;;;;;;5042213;28;20083;-70
2024/01/01 09:14:21;;;;;;;1.75;0.50;;;6.80;99.90;;;;;;5043404;28;20064;-70
2024/01/01 09:16:47;;;;;;;1.55;0.57;;;6.90;99.90;;;;;;5041342;28;20056;-70
2024/01/01 09:19:16;;;;;;;2.00;0.75;;;6.90;99.90;;;;;;5041296;28;20431;-70
2024/01/01 09:21:42;;;;;;;3.50;0.70;;;6.90;99.90;;;;;;5046229;28;20094;-70
2024/01/01 09:24:09;;;;;;;7.30;1.03;;;6.90;99.90;;;;;;5044840;28;20494;-70
2024/01/01 09:26:35;;;;;;;3.70;0.95;;;7.00;99.90;;;;;;5041565;28;20402;-70
2024/01/01 09:29:01;;;;;;;3.75;1.13;;;7.00;99.90;;;;;;5030028;28;20045;-70
2024/01/01 09:31:27;;;;;;;6.27;1.30;;;7.00;99.90;;;;;;5039418;28;20048;-68
2024/01/01 09:33:54;;;;;;;9.50;1.20;;;7.10;99.90;;;;;;5026958;28;20033;-71
2024/01/01 09:36:20;;;;;;;6.00;1.15;;;7.10;99.90;;;;;;5041789;28;20037;-70
2024/01/01 09:38:45;;;;;;;6.23;1.03;;;7.20;99.90;;;;;;5044598;28;20386;-72
2024/01/01 09:41:12;;;;;;;9.07;1.50;;;7.20;99.90;;;;;;5040267;28;20390;-72
2024/01/01 09:43:39;;;;;;;;;;;7.30;99.90;;;;;;5046477;28;20498;-72
2024/01/01 09:46:05;;;;;;;11.07;1.45;;;7.30;99.90;;;;;;5032777;28;19932;-72
2024/01/01 09:48:31;;;;;;;9.73;2.70;;;7.40;99.90;;;;;;5039995;28;20075;-73
2024/01/01 09:50:57;;;;;;;15.07;3.30;;;7.40;99.90;;;;;;5036935;28;20529;-72
2024/01/01 09:53:23;;;;;;;10.03;2.37;;;7.40;99.90;;;;;;5039735;28;20037;-74
2024/01/01 09:55:53;;;;;;;4.88;0.93;;;7.40;99.90;;;;;;5037851;28;20041;-72
2024/01/01 09:58:18;;;;;;;9.38;1.20;;;7.40;99.90;;;;;;5032678;28;20049;-72
2024/01/01 10:00:44;;;;;;;13.40;2.03;;;7.40;99.90;;;;;;5044574;28;20118;-74
2024/01/01 10:03:10;;;;;;;9.83;1.20;;;7.40;99.90;;;;;;5034525;28;20279;-73
2024/01/01 10:05:39;;;;;;;8.55;1.85;;;7.40;99.90;;;;;;5039860;28;20048;-72
2024/01/01 10:08:13;;;;;;;9.77;1.80;;;7.50;99.90;;;;;;5043099;28;20040;-72
2024/01/01 10:10:39;;;;;;;12.07;1.83;;;7.50;99.90;;;;;;5041790;28;20037;-74
2024/01/01 10:13:10;;;;;;;6.03;1.73;;;7.60;99.90;;;;;;5034319;28;20044;-72
2024/01/01 10:15:38;;;;;;;12.35;2.15;;;7.60;99.90;;;;;;5039882;28;20210;-73
2024/01/01 10:18:12;;;;;;;7.60;1.70;;;7.70;99.90;;;;;;5043247;28;20132;-73
2024/01/01 10:20:39;;;;;;;16.85;2.78;;;7.70;99.90;;;;;;5035545;28;20037;-73
2024/01/01 10:23:25;;;;;;;7.68;1.58;;;7.70;99.90;;;;;;5039856;28;20416;-71
2024/01/01 10:26:09;;;;;;;9.88;1.30;;;7.80;99.90;;;;;;5041298;28;20044;-72
2024/01/01 10:28:35;;;;;;;14.63;2.75;;;7.80;99.90;;;;;;5030170;28;20461;-72
2024/01/01 10:31:02;;;;;;;5.95;1.52;;;7.80;99.90;;;;;;5029413;28;20157;-72
2024/01/01 10:33:29;;;;;;;9.65;1.63;;;7.80;99.90;;;;;;5045901;28;20094;-72
2024/01/01 10:35:58;;;;;;;6.45;1.85;;;7.90;99.90;;;;;;5040110;28;20094;-72
2024/01/01 10:38:25;;;;;;;7.30;2.17;;;7.90;99.90;;;;;;5029697;28;20420;-72
2024/01/01 10:40:55;;;;;;;8.27;1.75;;;7.90;99.90;;;;;;5036126;28;20193;-72
2024/01/01 10:43:23;;;;;;;10.18;1.60;;;7.90;99.90;;;;;;5040509;28;20047;-73
2024/01/01 10:45:50;;;;;;;8.10;2.17;;;7.90;99.90;;;;;;5036660;28;20041;-72
2024/01/01 10:48:17;;;;;;;19.77;4.40;;;7.90;99.90;;;;;;5036831;28;20034;-72
2024/01/01 10:51:06;;;;;;;11.68;2.75;;;7.90;99.90;;;;;;5028451;28;20038;-72
2024/01/01 10:53:51;;;;;;;11.43;2.22;;;7.90;99.90;;;;;;5030692;28;20060;-73
2024/01/01 10:56:28;;;;;;;17.42;3.80;;;7.90;99.90;;;;;;5032726;28;20037;-72
2024/01/01 10:59:06;;;;;;;12.93;2.15;;;7.80;99.90;;;;;;5027864;28;20045;-75
2024/01/01 11:01:35;;;;;;;5.35;1.80;;;7.80;99.90;;;;;;5034900;28;20037;-73
2024/01/01 11:04:00;;;;;;;7.75;1.77;;;7.80;99.90;;;;;;5040891;28;20056;-73
2024/01/01 11:06:29;;;;;;;9.20;2.07;;;7.90;99.90;;;;;;5028274;28;20490;-72
2024/01/01 11:08:55;;;;;;;5.85;1.10;;;7.80;99.90;;;;;;5008528;28;20128;-72
2024/01/01 11:11:24;;;;;;;16.73;2.58;;;7.80;99.90;;;;;;5008645;28;20041;-73
2024/01/01 11:13:53;;;;;;;5.97;1.73;;;7.90;99.90;;;;;;5025290;28;20131;-73
2024/01/01 11:16:19;;;;;;;17.48;2.67;;;7.90;99.90;;;;;;5038205;28;20522;-72
2024/01/01 11:18:45;;;;;;;6.00;2.10;;;7.90;99.90;;;;;;5037423;28;20037;-73
2024/01/01 11:21:30;;;;;;;14.17;2.57;;;7.90;99.90;;;;;;5035309;28;20540;-74
2024/01/01 11:23:56;;;;;;;14.13;2.55;;;7.90;99.90;;;;;;5031985;28;20150;-72
2024/01/01 11:26:22;;;;;;;;;;;7.90;99.90;;;;;;5043459;28;20095;-72
2024/01/01 11:28:48;;;;;;;10.27;2.20;;;7.90;99.90;;;;;;5034136;28;19920;-73
2024/01/01 11:31:13;;;;;;;14.43;1.70;;;7.90;99.90;;;;;;5034815;28;20048;-72
2024/01/01 11:33:39;;;;;;;8.55;1.38;;;8.00;99.90;;;;;;5026314;28;20037;-75
2024/01/01 11:36:11;;;;;;;13.60;1.73;;;8.00;99.90;;;;;;5034243;28;20044;-72
2024/01/01 11:38:37;;;;;;;8.48;1.95;;;8.00;99.90;;;;;;5039513;28;20452;-72
2024/01/01 11:41:04;;;;;;;9.23;2.13;;;8.00;99.90;;;;;;5040850;28;20064;-72
2024/01/01 11:43:30;;;;;;;6.07;2.13;;;8.00;99.90;;;;;;5024537;28;20045;-72
2024/01/01 11:45:56;;;;;;;9.67;1.57;;;8.00;99.90;;;;;;5027421;28;20299;-72
2024/01/01 11:48:22;;;;;;;9.40;1.35;;;8.00;99.90;;;;;;5028107;28;20294;-73
2024/01/01 11:50:49;;;;;;;8.23;1.52;;;8.10;99.90;;;;;;5032847;28;20087;-72
2024/01/01 11:53:17;;;;;;;14.32;2.65;;;8.10;99.90;;;;;;5029850;28;20145;-72
2024/01/01 11:55:43;;;;;;;7.90;1.35;;;8.10;99.90;;;;;;5034485;28;20048;-73
2024/01/01 11:58:09;;;;;;;6.57;1.30;;;8.20;99.90;;;;;;5032271;28;20367;-72
2024/01/01 12:00:39;;;;;;;3.80;1.40;;;8.20;99.90;;;;;;5012738;28;20123;-72
2024/01/01 12:03:05;;;;;;;6.40;1.55;;;8.20;99.90;;;;;;5024035;28;20468;-73
2024/01/01 12:05:32;;;;;;;10.40;1.45;;;8.20;99.90;;;;;;5030110;28;20137;-72
2024/01/01 12:07:58;;;;;;;11.23;1.70;;;8.20;99.90;;;;;;5024554;28;20127;-72
2024/01/01 12:10:25;;;;;;;10.57;2.17;;;8.20;99.90;;;;;;5029273;28;20080;-73
2024/01/01 12:13:03;;;;;;;8.52;1.77;;;8.20;99.90;;;;;;5024880;28;20067;-74
2024/01/01 12:15:35;;;;;;;11.32;1.48;;;8.20;99.90;;;;;;5034294;28;20433;-72
2024/01/01 12:18:00;;;;;;;15.00;1.70;;;8.20;99.90;;;;;;5033676;28;20072;-72
2024/01/01 12:20:26;;;;;;;4.77;1.30;;;8.20;99.90;;;;;;5028978;28;20037;-72
2024/01/01 12:22:54;;;;;;;14.47;3.07;;;8.20;99.90;;;;;;5028197;28;20148;-72
2024/01/01 12:25:22;;;;;;;9.98;2.78;;;8.30;99.90;;;;;;5030890;28;20538;-73
2024/01/01 12:28:05;;;;;;;7.50;1.60;;;8.30;99.90;;;;;;5033565;28;20568;-72
2024/01/01 12:30:32;;;;;;;8.85;2.83;;;8.30;99.90;;;;;;5030473;28;20456;-72
2024/01/01 12:32:58;;;;;;;5.55;1.85;;;8.30;99.90;;;;;;5033918;28;20512;-72
2024/01/01 12:35:24;;;;;;;8.00;1.43;;;8.40;99.90;;;;;;5024958;28;20049;-72
2024/01/01 12:37:50;;;;;;;8.65;2.17;;;8.30;99.90;;;;;;5029117;28;20037;-72
2024/01/01 12:40:16;;;;;;;7.97;1.40;;;8.30;99.90;;;;;;5028450;28;20044;-72
2024/01/01 12:42:43;;;;;;;7.90;1.43;;;8.30;99.90;;;;;;5029497;28;20511;-72
2024/01/01 12:45:09;;;;;;;6.07;1.75;;;8.20;99.90;;;;;;5026675;28;20670;-74
2024/01/01 12:47:34;;;;;;;10.23;1.23;;;8.20;99.90;;;;;;5037082;28;20098;-72
2024/01/01 12:50:00;;;;;;;12.67;1.83;;;8.20;99.90;;;;;;5025429;28;20453;-72